createdAt,value
2023-08-29T00:01:13.792Z,1.48
2023-08-29T00:06:06.616Z,1.23
2023-08-29T00:10:58.731Z,1.05
2023-08-29T00:15:50.970Z,0.77
2023-08-29T00:20:42.606Z,1.05
2023-08-29T00:25:34.194Z,0.90
2023-08-29T00:30:25.834Z,1.80
2023-08-29T00:35:17.444Z,1.92
2023-08-29T00:40:10.611Z,1.23
2023-08-29T00:45:02.308Z,2.40
2023-08-29T00:49:54.217Z,2.45
2023-08-29T00:54:45.954Z,0.75
2023-08-29T00:59:37.830Z,1.50
2023-08-29T01:04:29.433Z,1.33
2023-08-29T01:09:21.067Z,0.77
2023-08-29T01:14:37.406Z,0.93
2023-08-29T01:19:29.483Z,1.10
2023-08-29T01:24:40.178Z,1.08
2023-08-29T01:29:34.389Z,1.10
2023-08-29T01:34:27.202Z,0.80
2023-08-29T01:39:18.877Z,1.45
2023-08-29T01:44:10.644Z,1.67
2023-08-29T01:49:03.711Z,1.13
2023-08-29T01:53:55.914Z,2.42
2023-08-29T01:58:49.573Z,1.42
2023-08-29T02:03:41.289Z,0.65
2023-08-29T02:08:33.331Z,0.82
2023-08-29T02:13:24.909Z,0.70
2023-08-29T02:18:16.568Z,0.98
2023-08-29T02:23:08.157Z,1.92
2023-08-29T02:27:59.854Z,1.40
2023-08-29T02:32:51.552Z,0.82
2023-08-29T02:37:43.172Z,0.77
2023-08-29T02:42:34.807Z,0.90
2023-08-29T02:47:26.571Z,0.77
2023-08-29T02:52:18.172Z,1.23
2023-08-29T02:57:09.834Z,1.33
2023-08-29T03:02:04.113Z,3.40
2023-08-29T03:06:55.717Z,1.63
2023-08-29T03:11:47.320Z,2.03
2023-08-29T03:16:39.019Z,1.10
2023-08-29T03:21:30.687Z,1.27
2023-08-29T03:26:22.412Z,2.60
2023-08-29T03:31:16.635Z,2.00
2023-08-29T03:36:09.645Z,2.03
2023-08-29T03:41:01.335Z,2.15
2023-08-29T03:46:03.962Z,1.42
2023-08-29T03:50:55.759Z,2.67
2023-08-29T03:55:47.497Z,2.50
2023-08-29T04:00:39.170Z,2.72
2023-08-29T04:05:30.936Z,1.95
2023-08-29T04:10:22.690Z,1.67
2023-08-29T04:15:14.689Z,1.67
2023-08-29T04:20:10.158Z,2.38
2023-08-29T04:25:02.221Z,1.52
2023-08-29T04:29:53.826Z,1.60
2023-08-29T04:34:45.761Z,1.23
2023-08-29T04:39:39.870Z,1.75
2023-08-29T04:44:31.798Z,4.18
2023-08-29T04:49:23.501Z,2.10
2023-08-29T04:54:15.110Z,3.97
2023-08-29T04:59:07.040Z,2.25
2023-08-29T05:03:58.671Z,3.05
2023-08-29T05:08:50.298Z,3.25
2023-08-29T05:13:41.972Z,1.52
2023-08-29T05:18:33.602Z,1.23
2023-08-29T05:23:25.346Z,3.05
2023-08-29T05:28:16.934Z,1.95
2023-08-29T05:33:08.707Z,2.70
2023-08-29T05:38:00.613Z,3.30
2023-08-29T05:42:52.188Z,1.45
2023-08-29T05:47:43.737Z,2.35
2023-08-29T05:52:35.856Z,1.73
2023-08-29T05:57:27.473Z,2.35
2023-08-29T06:02:19.057Z,1.90
2023-08-29T06:07:10.667Z,2.22
2023-08-29T06:12:02.278Z,3.58
2023-08-29T06:16:53.926Z,2.38
2023-08-29T06:21:45.531Z,2.67
2023-08-29T06:26:38.482Z,2.30
2023-08-29T06:31:30.184Z,4.80
2023-08-29T06:36:21.765Z,2.38
2023-08-29T06:41:13.358Z,2.05
2023-08-29T06:46:05.033Z,2.55
2023-08-29T06:50:56.662Z,1.90
2023-08-29T06:55:48.297Z,3.92
2023-08-29T07:00:39.972Z,2.72
2023-08-29T07:05:31.605Z,3.10
2023-08-29T07:10:23.429Z,3.50
2023-08-29T07:15:15.261Z,2.67
2023-08-29T07:20:10.205Z,2.97
2023-08-29T07:25:01.986Z,3.42
2023-08-29T07:29:53.573Z,3.58
2023-08-29T07:34:45.207Z,3.10
2023-08-29T07:39:37.035Z,4.15
2023-08-29T07:44:28.666Z,4.03
2023-08-29T07:49:21.579Z,4.68
2023-08-29T07:54:13.314Z,3.03
2023-08-29T07:59:04.950Z,4.43
2023-08-29T08:03:57.052Z,4.05
2023-08-29T08:08:48.687Z,2.72
2023-08-29T08:13:40.299Z,2.53
2023-08-29T08:18:31.885Z,2.28
2023-08-29T08:23:23.509Z,4.25
2023-08-29T08:28:15.220Z,2.47
2023-08-29T08:33:07.269Z,4.72
2023-08-29T08:37:58.914Z,4.60
2023-08-29T08:42:50.568Z,6.18
2023-08-29T08:47:42.488Z,4.22
2023-08-29T08:52:37.579Z,5.10
2023-08-29T08:57:29.285Z,4.82
2023-08-29T09:02:21.875Z,3.75
2023-08-29T09:07:13.440Z,4.72
2023-08-29T09:12:05.358Z,5.38
2023-08-29T09:16:58.261Z,3.40
2023-08-29T09:21:50.998Z,4.50
2023-08-29T09:26:42.579Z,4.68
2023-08-29T09:31:34.266Z,4.60
2023-08-29T09:36:26.577Z,3.42
2023-08-29T09:41:18.740Z,5.25
2023-08-29T09:46:10.517Z,6.80
2023-08-29T09:51:06.095Z,4.80
2023-08-29T09:56:06.905Z,3.53
2023-08-29T10:01:01.202Z,5.03
2023-08-29T10:05:56.949Z,5.43
2023-08-29T10:10:49.288Z,3.22
2023-08-29T10:15:43.378Z,3.70
2023-08-29T10:20:36.455Z,3.30
2023-08-29T10:25:29.477Z,3.90
2023-08-29T10:30:24.654Z,4.28
2023-08-29T10:35:20.651Z,3.70
2023-08-29T10:40:13.207Z,3.95
2023-08-29T10:45:05.372Z,3.13
2023-08-29T10:50:03.365Z,5.43
2023-08-29T10:55:10.619Z,5.00
2023-08-29T11:00:02.286Z,5.50
2023-08-29T11:05:06.046Z,4.07
2023-08-29T11:10:23.762Z,3.08
2023-08-29T11:15:15.344Z,3.10
2023-08-29T11:20:09.722Z,4.05
2023-08-29T11:25:01.373Z,3.28
2023-08-29T11:30:05.088Z,3.20
2023-08-29T11:35:05.448Z,2.35
2023-08-29T11:39:59.591Z,2.78
2023-08-29T11:45:45.956Z,2.40
2023-08-29T11:50:06.465Z,1.80
2023-08-29T11:54:58.102Z,2.50
2023-08-29T11:59:53.111Z,1.88
2023-08-29T12:04:46.445Z,1.98
2023-08-29T12:09:39.323Z,2.03
2023-08-29T12:14:31.001Z,2.67
2023-08-29T12:19:22.613Z,3.42
2023-08-29T12:24:14.963Z,2.58
2023-08-29T12:29:06.577Z,1.90
2023-08-29T12:33:58.257Z,1.75
2023-08-29T12:38:49.914Z,1.95
2023-08-29T12:43:41.747Z,0.90
2023-08-29T12:48:33.386Z,1.67
2023-08-29T12:53:25.020Z,1.38
2023-08-29T12:58:16.624Z,1.85
2023-08-29T13:03:08.514Z,1.10
2023-08-29T13:08:00.252Z,0.77
2023-08-29T13:12:53.145Z,0.77
2023-08-29T13:17:45.291Z,0.90
2023-08-29T13:22:40.345Z,2.35
2023-08-29T13:27:31.973Z,0.85
2023-08-29T13:32:23.639Z,3.97
2023-08-29T13:37:15.323Z,1.50
2023-08-29T13:42:06.922Z,2.90
2023-08-29T13:46:59.375Z,1.52
2023-08-29T13:51:51.109Z,3.08
2023-08-29T13:56:45.101Z,2.65
2023-08-29T14:01:36.730Z,2.33
2023-08-29T14:06:28.686Z,1.55
2023-08-29T14:11:20.683Z,1.83
2023-08-29T14:16:12.301Z,3.15
2023-08-29T14:21:04.215Z,3.95
2023-08-29T14:25:55.907Z,3.60
2023-08-29T14:30:49.310Z,4.40
2023-08-29T14:35:41.821Z,5.63
2023-08-29T14:40:33.668Z,8.27
2023-08-29T14:45:25.463Z,5.75
2023-08-29T14:50:17.144Z,8.57
2023-08-29T14:55:09.677Z,8.68
2023-08-29T15:00:01.817Z,6.30
2023-08-29T15:04:53.677Z,5.50
2023-08-29T15:09:45.633Z,8.00
2023-08-29T15:14:37.456Z,6.20
2023-08-29T15:19:29.042Z,7.03
2023-08-29T15:24:20.696Z,4.15
2023-08-29T15:29:13.721Z,7.53
2023-08-29T15:34:05.575Z,3.53
2023-08-29T15:38:57.281Z,5.65
2023-08-29T15:43:48.985Z,7.18
2023-08-29T15:48:40.950Z,6.88
2023-08-29T15:53:35.307Z,4.93
2023-08-29T15:58:26.934Z,6.63
2023-08-29T16:03:18.733Z,4.07
2023-08-29T16:08:10.651Z,3.35
2023-08-29T16:13:02.648Z,2.80
2023-08-29T16:17:54.421Z,2.65
2023-08-29T16:22:47.634Z,2.92
2023-08-29T16:27:39.395Z,3.72
2023-08-29T16:32:31.081Z,2.70
2023-08-29T16:37:22.754Z,2.08
2023-08-29T16:42:14.406Z,3.72
2023-08-29T16:47:06.002Z,3.25
2023-08-29T16:51:58.623Z,5.32
2023-08-29T16:56:50.410Z,5.30
2023-08-29T17:01:42.071Z,2.28
2023-08-29T17:06:34.449Z,5.20
2023-08-29T17:11:26.290Z,2.55
2023-08-29T17:16:18.009Z,5.05
2023-08-29T17:21:09.676Z,4.53
2023-08-29T17:26:01.359Z,3.10
2023-08-29T17:30:52.964Z,3.55
2023-08-29T17:35:44.602Z,3.47
2023-08-29T17:40:36.189Z,2.55
2023-08-29T17:45:27.779Z,4.53
2023-08-29T17:50:19.478Z,4.70
2023-08-29T17:55:11.849Z,4.88
2023-08-29T18:00:03.897Z,2.00
2023-08-29T18:04:55.537Z,8.57
2023-08-29T18:10:18.367Z,7.47
2023-08-29T18:15:11.512Z,3.80
2023-08-29T18:20:03.458Z,3.15
2023-08-29T18:24:55.121Z,6.50
2023-08-29T18:29:48.527Z,4.38
2023-08-29T18:34:40.296Z,2.72
2023-08-29T18:39:31.875Z,4.75
2023-08-29T18:44:23.497Z,6.65
2023-08-29T18:49:15.121Z,3.60
2023-08-29T18:54:06.754Z,8.65
2023-08-29T18:58:58.306Z,5.15
2023-08-29T19:03:49.938Z,5.70
2023-08-29T19:08:41.926Z,5.82
2023-08-29T19:13:36.737Z,6.90
2023-08-29T19:18:28.427Z,6.60
2023-08-29T19:23:22.826Z,6.50
2023-08-29T19:28:14.444Z,6.70
2023-08-29T19:33:06.450Z,5.25
2023-08-29T19:37:58.459Z,4.35
2023-08-29T19:42:50.118Z,7.05
2023-08-29T19:47:42.869Z,6.78
2023-08-29T19:52:35.339Z,5.78
2023-08-29T19:57:27.072Z,7.28
2023-08-29T20:02:18.909Z,6.30
2023-08-29T20:07:10.482Z,4.35
2023-08-29T20:12:02.430Z,9.88
2023-08-29T20:16:54.068Z,2.75
2023-08-29T20:21:45.874Z,6.55
2023-08-29T20:26:37.452Z,5.57
2023-08-29T20:31:29.150Z,3.53
2023-08-29T20:36:20.784Z,6.15
2023-08-29T20:41:12.386Z,4.95
2023-08-29T20:46:04.013Z,3.15
2023-08-29T20:51:01.857Z,4.55
2023-08-29T20:55:53.503Z,5.28
2023-08-29T21:00:45.149Z,4.15
2023-08-29T21:05:36.718Z,2.05
2023-08-29T21:10:29.174Z,2.28
2023-08-29T21:15:20.789Z,4.28
2023-08-29T21:20:12.545Z,4.47
2023-08-29T21:25:04.412Z,5.15
2023-08-29T21:29:56.067Z,9.15
2023-08-29T21:34:47.728Z,5.63
2023-08-29T21:39:39.738Z,9.32
2023-08-29T21:44:31.329Z,5.90
2023-08-29T21:49:23.120Z,4.97
2023-08-29T21:54:14.734Z,5.82
2023-08-29T21:59:06.317Z,8.38
2023-08-29T22:03:57.942Z,7.50
2023-08-29T22:08:49.540Z,6.57
2023-08-29T22:13:41.212Z,4.50
2023-08-29T22:18:32.999Z,5.90
2023-08-29T22:23:24.654Z,7.93
2023-08-29T22:28:16.850Z,2.65
2023-08-29T22:33:09.378Z,4.07
2023-08-29T22:38:01.093Z,3.72
2023-08-29T22:42:53.784Z,4.82
2023-08-29T22:47:45.409Z,4.38
2023-08-29T22:52:39.974Z,3.25
2023-08-29T22:57:31.637Z,3.78
2023-08-29T23:02:23.742Z,4.10
2023-08-29T23:07:15.357Z,4.07
2023-08-29T23:12:07.258Z,3.10
2023-08-29T23:16:59.042Z,4.57
2023-08-29T23:21:51.510Z,2.95
2023-08-29T23:26:43.363Z,4.43
2023-08-29T23:31:36.338Z,4.10
2023-08-29T23:36:29.275Z,5.97
2023-08-29T23:41:20.983Z,8.77
2023-08-29T23:46:14.109Z,5.93
2023-08-29T23:51:05.785Z,6.30
2023-08-29T23:55:57.381Z,8.30
